sensor_id;sensor_type;location;lat;lon;timestamp;pressure;altitude;pressure_sealevel;temperature;humidity
21623;BME280;10973;46.706;12.340;2023-02-19T17:26:59;87583.44;;;8.48;38.48
21623;BME280;10973;46.706;12.340;2023-02-19T17:29:26;87588.13;;;8.35;38.78
21623;BME280;10973;46.706;12.340;2023-02-19T17:31:54;87584.75;;;8.35;38.72
21623;BME280;10973;46.706;12.340;2023-02-19T17:34:21;87592.56;;;8.31;39.08
21623;BME280;10973;46.706;12.340;2023-02-19T17:36:49;87599.59;;;8.27;38.68
21623;BME280;10973;46.706;12.340;2023-02-19T17:39:17;87605.88;;;8.23;39.00
21623;BME280;10973;46.706;12.340;2023-02-19T17:41:44;87608.75;;;8.14;39.27
21623;BME280;10973;46.706;12.340;2023-02-19T17:44:12;87614.28;;;8.09;39.69
21623;BME280;10973;46.706;12.340;2023-02-19T17:46:40;87622.31;;;7.97;39.95
21623;BME280;10973;46.706;12.340;2023-02-19T17:49:11;87619.97;;;7.92;39.58
21623;BME280;10973;46.706;12.340;2023-02-19T17:51:39;87612.44;;;7.90;40.00
21623;BME280;10973;46.706;12.340;2023-02-19T17:54:06;87620.06;;;7.76;39.06
21623;BME280;10973;46.706;12.340;2023-02-19T17:56:34;87616.97;;;7.71;39.47
21623;BME280;10973;46.706;12.340;2023-02-19T17:59:02;87629.53;;;7.62;39.51
21623;BME280;10973;46.706;12.340;2023-02-19T18:01:29;87628.34;;;7.59;39.26
21623;BME280;10973;46.706;12.340;2023-02-19T18:03:56;87629.81;;;7.57;38.92
21623;BME280;10973;46.706;12.340;2023-02-19T18:06:24;87650.47;;;7.58;38.98
21623;BME280;10973;46.706;12.340;2023-02-19T18:08:52;87654.44;;;7.52;38.30
21623;BME280;10973;46.706;12.340;2023-02-19T18:11:21;87652.72;;;7.60;37.90
21623;BME280;10973;46.706;12.340;2023-02-19T18:13:51;87653.63;;;7.67;36.64
21623;BME280;10973;46.706;12.340;2023-02-19T18:16:18;87639.41;;;7.68;36.57
21623;BME280;10973;46.706;12.340;2023-02-19T18:18:47;87642.91;;;7.57;36.70
21623;BME280;10973;46.706;12.340;2023-02-19T18:21:14;87645.94;;;7.59;37.16
21623;BME280;10973;46.706;12.340;2023-02-19T18:23:42;87657.56;;;7.58;36.46
21623;BME280;10973;46.706;12.340;2023-02-19T18:26:10;87636.00;;;7.68;36.49
21623;BME280;10973;46.706;12.340;2023-02-19T18:28:39;87635.94;;;7.64;36.79
21623;BME280;10973;46.706;12.340;2023-02-19T18:31:06;87652.91;;;7.70;37.47
21623;BME280;10973;46.706;12.340;2023-02-19T18:33:34;87645.81;;;7.71;37.04
21623;BME280;10973;46.706;12.340;2023-02-19T18:36:02;87654.84;;;7.73;36.62
21623;BME280;10973;46.706;12.340;2023-02-19T18:38:32;87641.53;;;7.82;36.51
21623;BME280;10973;46.706;12.340;2023-02-19T18:40:59;87646.78;;;7.82;35.72
21623;BME280;10973;46.706;12.340;2023-02-19T18:43:27;87642.16;;;7.95;34.54
21623;BME280;10973;46.706;12.340;2023-02-19T18:45:54;87647.94;;;8.04;35.36
21623;BME280;10973;46.706;12.340;2023-02-19T18:48:21;87651.59;;;7.99;34.49
21623;BME280;10973;46.706;12.340;2023-02-19T18:50:49;87657.19;;;7.98;34.38
21623;BME280;10973;46.706;12.340;2023-02-19T18:53:16;87654.63;;;8.01;33.64
21623;BME280;10973;46.706;12.340;2023-02-19T18:55:43;87664.63;;;8.15;33.82
21623;BME280;10973;46.706;12.340;2023-02-19T18:58:11;87667.31;;;8.18;34.02
21623;BME280;10973;46.706;12.340;2023-02-19T19:00:38;87671.47;;;8.19;33.33
21623;BME280;10973;46.706;12.340;2023-02-19T19:03:09;87670.56;;;8.31;32.41
21623;BME280;10973;46.706;12.340;2023-02-19T19:05:39;87674.06;;;8.38;31.92
21623;BME280;10973;46.706;12.340;2023-02-19T19:08:06;87677.97;;;8.48;31.51
21623;BME280;10973;46.706;12.340;2023-02-19T19:10:34;87685.34;;;8.61;33.12
21623;BME280;10973;46.706;12.340;2023-02-19T19:13:01;87697.00;;;8.64;32.85
21623;BME280;10973;46.706;12.340;2023-02-19T19:15:30;87700.00;;;8.63;33.71
21623;BME280;10973;46.706;12.340;2023-02-19T19:17:58;87712.72;;;8.60;34.32
21623;BME280;10973;46.706;12.340;2023-02-19T19:20:29;87729.13;;;8.54;34.79
21623;BME280;10973;46.706;12.340;2023-02-19T19:22:56;87739.03;;;8.41;34.96
21623;BME280;10973;46.706;12.340;2023-02-19T19:25:26;87730.19;;;8.30;35.72
21623;BME280;10973;46.706;12.340;2023-02-19T19:27:55;87724.13;;;8.26;35.87
21623;BME280;10973;46.706;12.340;2023-02-19T19:30:22;87735.97;;;8.20;36.10
21623;BME280;10973;46.706;12.340;2023-02-19T19:32:50;87761.66;;;8.11;36.58
21623;BME280;10973;46.706;12.340;2023-02-19T19:35:20;87767.13;;;8.03;36.21
21623;BME280;10973;46.706;12.340;2023-02-19T19:37:48;87758.84;;;8.01;36.15
21623;BME280;10973;46.706;12.340;2023-02-19T19:40:17;87761.41;;;7.97;36.93
21623;BME280;10973;46.706;12.340;2023-02-19T19:42:45;87774.78;;;7.92;37.46
21623;BME280;10973;46.706;12.340;2023-02-19T19:45:13;87785.81;;;7.82;37.60
21623;BME280;10973;46.706;12.340;2023-02-19T19:47:41;87786.00;;;7.73;38.16
21623;BME280;10973;46.706;12.340;2023-02-19T19:50:12;87786.88;;;7.62;38.06
21623;BME280;10973;46.706;12.340;2023-02-19T19:52:39;87797.63;;;7.57;38.12
21623;BME280;10973;46.706;12.340;2023-02-19T19:55:07;87802.31;;;7.48;38.50
21623;BME280;10973;46.706;12.340;2023-02-19T19:57:35;87798.38;;;7.38;39.18
21623;BME280;10973;46.706;12.340;2023-02-19T20:00:05;87797.69;;;7.26;39.59
21623;BME280;10973;46.706;12.340;2023-02-19T20:02:32;87803.19;;;7.20;39.53
21623;BME280;10973;46.706;12.340;2023-02-19T20:04:59;87789.50;;;7.11;39.58
21623;BME280;10973;46.706;12.340;2023-02-19T20:07:27;87788.25;;;7.05;39.75
21623;BME280;10973;46.706;12.340;2023-02-19T20:09:54;87791.34;;;6.95;39.91
21623;BME280;10973;46.706;12.340;2023-02-19T20:12:21;87791.63;;;6.90;40.83
21623;BME280;10973;46.706;12.340;2023-02-19T20:14:48;87788.66;;;6.76;40.79
21623;BME280;10973;46.706;12.340;2023-02-19T20:17:16;87792.53;;;6.67;40.89
21623;BME280;10973;46.706;12.340;2023-02-19T20:19:44;87793.34;;;6.55;40.87
21623;BME280;10973;46.706;12.340;2023-02-19T20:22:12;87783.47;;;6.48;41.34
21623;BME280;10973;46.706;12.340;2023-02-19T20:24:39;87774.66;;;6.41;41.77
21623;BME280;10973;46.706;12.340;2023-02-19T20:27:07;87781.97;;;6.20;41.70
21623;BME280;10973;46.706;12.340;2023-02-19T20:29:35;87770.22;;;6.14;41.53
21623;BME280;10973;46.706;12.340;2023-02-19T20:32:02;87763.09;;;5.99;41.61
21623;BME280;10973;46.706;12.340;2023-02-19T20:34:30;87765.97;;;6.09;41.06
21623;BME280;10973;46.706;12.340;2023-02-19T20:36:58;87773.69;;;6.18;40.55
21623;BME280;10973;46.706;12.340;2023-02-19T20:39:25;87765.66;;;6.11;40.66
21623;BME280;10973;46.706;12.340;2023-02-19T20:41:53;87765.81;;;6.18;40.55
21623;BME280;10973;46.706;12.340;2023-02-19T20:44:21;87770.22;;;6.14;40.17
21623;BME280;10973;46.706;12.340;2023-02-19T20:46:50;87758.97;;;6.13;40.08
21623;BME280;10973;46.706;12.340;2023-02-19T20:49:21;87760.16;;;6.16;40.45
21623;BME280;10973;46.706;12.340;2023-02-19T20:51:58;87763.91;;;6.15;40.46
21623;BME280;10973;46.706;12.340;2023-02-19T20:54:30;87773.16;;;6.12;40.56
21623;BME280;10973;46.706;12.340;2023-02-19T20:57:00;87776.38;;;6.06;40.57
21623;BME280;10973;46.706;12.340;2023-02-19T20:59:31;87766.91;;;6.01;40.46
21623;BME280;10973;46.706;12.340;2023-02-19T21:02:01;87778.22;;;6.05;40.39
21623;BME280;10973;46.706;12.340;2023-02-19T21:04:29;87780.41;;;6.03;40.87
21623;BME280;10973;46.706;12.340;2023-02-19T21:06:57;87785.91;;;5.86;40.86
21623;BME280;10973;46.706;12.340;2023-02-19T21:09:25;87781.47;;;5.74;40.93
21623;BME280;10973;46.706;12.340;2023-02-19T21:11:52;87787.19;;;5.80;41.02
21623;BME280;10973;46.706;12.340;2023-02-19T21:14:20;87786.56;;;5.83;40.99
21623;BME280;10973;46.706;12.340;2023-02-19T21:16:47;87779.47;;;5.84;41.01
21623;BME280;10973;46.706;12.340;2023-02-19T21:19:14;87783.81;;;5.79;41.12
21623;BME280;10973;46.706;12.340;2023-02-19T21:21:42;87784.06;;;5.74;41.88
21623;BME280;10973;46.706;12.340;2023-02-19T21:24:12;87784.19;;;5.66;42.05
21623;BME280;10973;46.706;12.340;2023-02-19T21:26:41;87797.25;;;5.66;41.59
21623;BME280;10973;46.706;12.340;2023-02-19T21:29:15;87793.03;;;5.61;41.92
21623;BME280;10973;46.706;12.340;2023-02-19T21:31:46;87789.66;;;5.61;42.02
21623;BME280;10973;46.706;12.340;2023-02-19T21:34:18;87788.13;;;5.60;42.52
21623;BME280;10973;46.706;12.340;2023-02-19T21:36:46;87788.25;;;5.51;42.72
21623;BME280;10973;46.706;12.340;2023-02-19T21:39:16;87798.28;;;5.49;42.69
21623;BME280;10973;46.706;12.340;2023-02-19T21:41:45;87794.91;;;5.49;42.20
21623;BME280;10973;46.706;12.340;2023-02-19T21:44:12;87792.53;;;5.44;42.18
21623;BME280;10973;46.706;12.340;2023-02-19T21:46:40;87790.56;;;5.41;42.45
21623;BME280;10973;46.706;12.340;2023-02-19T21:49:08;87793.94;;;5.41;42.56
21623;BME280;10973;46.706;12.340;2023-02-19T21:51:40;87788.28;;;5.39;43.04
21623;BME280;10973;46.706;12.340;2023-02-19T21:54:21;87795.69;;;5.37;42.81
21623;BME280;10973;46.706;12.340;2023-02-19T21:56:49;87789.81;;;5.40;42.57
21623;BME280;10973;46.706;12.340;2023-02-19T21:59:18;87780.00;;;5.37;42.49
21623;BME280;10973;46.706;12.340;2023-02-19T22:01:46;87785.31;;;5.41;42.24
21623;BME280;10973;46.706;12.340;2023-02-19T22:04:17;87788.63;;;5.26;42.53
21623;BME280;10973;46.706;12.340;2023-02-19T22:06:44;87794.16;;;5.36;42.00
21623;BME280;10973;46.706;12.340;2023-02-19T22:09:13;87798.41;;;5.41;42.09
21623;BME280;10973;46.706;12.340;2023-02-19T22:11:41;87798.31;;;5.37;42.30
21623;BME280;10973;46.706;12.340;2023-02-19T22:14:08;87805.28;;;5.33;42.17
21623;BME280;10973;46.706;12.340;2023-02-19T22:16:35;87807.88;;;5.33;42.21
21623;BME280;10973;46.706;12.340;2023-02-19T22:19:03;87804.50;;;5.33;42.14
21623;BME280;10973;46.706;12.340;2023-02-19T22:21:32;87806.56;;;5.27;42.54
21623;BME280;10973;46.706;12.340;2023-02-19T22:24:01;87810.84;;;5.20;42.69
21623;BME280;10973;46.706;12.340;2023-02-19T22:26:33;87812.13;;;5.14;42.68
21623;BME280;10973;46.706;12.340;2023-02-19T22:29:02;87817.91;;;5.07;43.12
21623;BME280;10973;46.706;12.340;2023-02-19T22:31:31;87808.13;;;5.04;42.97
21623;BME280;10973;46.706;12.340;2023-02-19T22:33:59;87818.44;;;5.00;43.10
21623;BME280;10973;46.706;12.340;2023-02-19T22:36:29;87813.13;;;4.97;43.06
21623;BME280;10973;46.706;12.340;2023-02-19T22:38:58;87819.44;;;4.96;43.27
21623;BME280;10973;46.706;12.340;2023-02-19T22:41:27;87812.69;;;4.95;43.50
21623;BME280;10973;46.706;12.340;2023-02-19T22:48:01;87815.09;;;4.88;43.43
21623;BME280;10973;46.706;12.340;2023-02-19T22:50:29;87814.41;;;4.91;43.20
21623;BME280;10973;46.706;12.340;2023-02-19T22:52:56;87818.78;;;4.87;43.07
21623;BME280;10973;46.706;12.340;2023-02-19T22:55:23;87823.00;;;4.91;43.33
21623;BME280;10973;46.706;12.340;2023-02-19T22:57:51;87833.47;;;4.91;43.03
21623;BME280;10973;46.706;12.340;2023-02-19T23:00:20;87832.06;;;4.94;43.17
21623;BME280;10973;46.706;12.340;2023-02-19T23:02:48;87827.59;;;4.94;42.79
21623;BME280;10973;46.706;12.340;2023-02-19T23:05:15;87827.03;;;4.89;43.15
21623;BME280;10973;46.706;12.340;2023-02-19T23:07:44;87834.34;;;4.83;43.20
21623;BME280;10973;46.706;12.340;2023-02-19T23:14:26;87835.47;;;4.62;43.70
21623;BME280;10973;46.706;12.340;2023-02-19T23:16:53;87838.75;;;4.59;43.70
21623;BME280;10973;46.706;12.340;2023-02-19T23:19:21;87841.22;;;4.55;43.93
21623;BME280;10973;46.706;12.340;2023-02-19T23:21:48;87839.72;;;4.54;44.02
21623;BME280;10973;46.706;12.340;2023-02-19T23:28:34;87844.78;;;4.39;44.52
21623;BME280;10973;46.706;12.340;2023-02-19T23:31:02;87832.94;;;4.41;44.45
21623;BME280;10973;46.706;12.340;2023-02-19T23:33:29;87843.25;;;4.38;44.47
21623;BME280;10973;46.706;12.340;2023-02-19T23:35:56;87836.06;;;4.34;44.79
21623;BME280;10973;46.706;12.340;2023-02-19T23:38:24;87843.25;;;4.38;44.47
21623;BME280;10973;46.706;12.340;2023-02-19T23:40:51;87854.22;;;4.31;44.37
21623;BME280;10973;46.706;12.340;2023-02-19T23:43:18;87844.31;;;4.24;44.38
21623;BME280;10973;46.706;12.340;2023-02-19T23:49:52;87848.19;;;4.18;45.02
21623;BME280;10973;46.706;12.340;2023-02-19T23:52:20;87841.31;;;4.14;44.63
21623;BME280;10973;46.706;12.340;2023-02-19T23:54:47;87851.94;;;4.09;44.99
21623;BME280;10973;46.706;12.340;2023-02-19T23:57:15;87853.69;;;4.05;44.90
21623;BME280;10973;46.706;12.340;2023-02-19T23:59:42;87850.28;;;4.04;44.41
